Terminal Aerodrome Forecast
Issued by NWS Wilmington, OH

Current Version | Previous Version | Text Only | Print | Product List | Glossary Off
Versions: 1 2 3 4 5 6 7 8 9 10 11 12 13 14 15 16 17 18 19

944
FTUS41 KILN 180903 AAA
TAFDAY
TAF AMD
KDAY 180903Z 1809/1906 21003KT P6SM SCT070 BKN210
     FM181200 21004KT P6SM BKN090
     FM181800 21005KT P6SM VCSH SCT040 BKN090
     FM190000 00000KT P6SM BKN090=

USA.gov is the U.S. government's official web portal to all federal, state and local government web resources and services.